sensor_id;sensor_type;location;lat;lon;timestamp;P1;durP1;ratioP1;P2;durP2;ratioP2
16832;SDS011;8533;48.426;10.868;2022-09-01T00:01:41;15.17;;;9.77;;
16832;SDS011;8533;48.426;10.868;2022-09-01T00:04:12;16.60;;;9.80;;
16832;SDS011;8533;48.426;10.868;2022-09-01T00:06:42;15.23;;;9.77;;
16832;SDS011;8533;48.426;10.868;2022-09-01T00:09:11;16.13;;;10.47;;
16832;SDS011;8533;48.426;10.868;2022-09-01T00:11:41;19.70;;;10.33;;
16832;SDS011;8533;48.426;10.868;2022-09-01T00:14:11;17.80;;;10.47;;
16832;SDS011;8533;48.426;10.868;2022-09-01T00:16:39;15.43;;;9.40;;
16832;SDS011;8533;48.426;10.868;2022-09-01T00:19:07;19.20;;;10.83;;
16832;SDS011;8533;48.426;10.868;2022-09-01T00:21:39;18.07;;;9.83;;
16832;SDS011;8533;48.426;10.868;2022-09-01T00:24:08;17.80;;;10.07;;
16832;SDS011;8533;48.426;10.868;2022-09-01T00:26:37;18.40;;;10.70;;
16832;SDS011;8533;48.426;10.868;2022-09-01T00:29:05;17.20;;;10.60;;
16832;SDS011;8533;48.426;10.868;2022-09-01T00:31:33;16.87;;;10.83;;
16832;SDS011;8533;48.426;10.868;2022-09-01T00:34:01;18.80;;;11.23;;
16832;SDS011;8533;48.426;10.868;2022-09-01T00:36:29;17.92;;;11.75;;
16832;SDS011;8533;48.426;10.868;2022-09-01T00:38:57;15.57;;;10.20;;
16832;SDS011;8533;48.426;10.868;2022-09-01T00:41:27;17.37;;;10.67;;
16832;SDS011;8533;48.426;10.868;2022-09-01T00:43:56;15.40;;;9.83;;
16832;SDS011;8533;48.426;10.868;2022-09-01T00:46:27;15.17;;;10.43;;
16832;SDS011;8533;48.426;10.868;2022-09-01T00:48:58;18.40;;;10.20;;
16832;SDS011;8533;48.426;10.868;2022-09-01T00:54:01;17.83;;;10.83;;
16832;SDS011;8533;48.426;10.868;2022-09-01T00:56:31;19.10;;;10.80;;
16832;SDS011;8533;48.426;10.868;2022-09-01T00:59:01;16.40;;;10.03;;
16832;SDS011;8533;48.426;10.868;2022-09-01T01:01:31;16.10;;;10.37;;
16832;SDS011;8533;48.426;10.868;2022-09-01T01:04:07;15.63;;;9.90;;
16832;SDS011;8533;48.426;10.868;2022-09-01T01:06:31;17.67;;;11.20;;
16832;SDS011;8533;48.426;10.868;2022-09-01T01:08:59;15.80;;;10.57;;
16832;SDS011;8533;48.426;10.868;2022-09-01T01:13:58;17.43;;;11.10;;
16832;SDS011;8533;48.426;10.868;2022-09-01T01:16:29;16.13;;;10.17;;
16832;SDS011;8533;48.426;10.868;2022-09-01T01:18:57;15.63;;;9.97;;
16832;SDS011;8533;48.426;10.868;2022-09-01T01:21:26;15.47;;;10.30;;
16832;SDS011;8533;48.426;10.868;2022-09-01T01:24:32;14.83;;;9.97;;
16832;SDS011;8533;48.426;10.868;2022-09-01T01:27:00;15.90;;;10.00;;
16832;SDS011;8533;48.426;10.868;2022-09-01T01:29:32;18.57;;;11.13;;
16832;SDS011;8533;48.426;10.868;2022-09-01T01:34:31;17.47;;;11.20;;
16832;SDS011;8533;48.426;10.868;2022-09-01T01:36:59;16.03;;;10.67;;
16832;SDS011;8533;48.426;10.868;2022-09-01T01:39:26;18.97;;;11.33;;
16832;SDS011;8533;48.426;10.868;2022-09-01T01:41:54;18.90;;;11.10;;
16832;SDS011;8533;48.426;10.868;2022-09-01T01:44:24;16.57;;;10.80;;
16832;SDS011;8533;48.426;10.868;2022-09-01T01:46:56;15.50;;;10.53;;
16832;SDS011;8533;48.426;10.868;2022-09-01T01:49:25;17.27;;;11.37;;
16832;SDS011;8533;48.426;10.868;2022-09-01T01:51:54;15.70;;;10.37;;
16832;SDS011;8533;48.426;10.868;2022-09-01T01:54:23;18.47;;;11.63;;
16832;SDS011;8533;48.426;10.868;2022-09-01T01:56:54;20.23;;;12.40;;
16832;SDS011;8533;48.426;10.868;2022-09-01T01:59:22;19.47;;;12.27;;
16832;SDS011;8533;48.426;10.868;2022-09-01T02:01:51;19.23;;;11.90;;
16832;SDS011;8533;48.426;10.868;2022-09-01T02:04:19;19.73;;;12.33;;
16832;SDS011;8533;48.426;10.868;2022-09-01T02:06:48;21.80;;;12.10;;
16832;SDS011;8533;48.426;10.868;2022-09-01T02:09:17;19.27;;;11.73;;
16832;SDS011;8533;48.426;10.868;2022-09-01T02:11:47;18.67;;;11.40;;
16832;SDS011;8533;48.426;10.868;2022-09-01T02:14:17;17.67;;;10.53;;
16832;SDS011;8533;48.426;10.868;2022-09-01T02:16:46;18.20;;;11.57;;
16832;SDS011;8533;48.426;10.868;2022-09-01T02:19:14;20.30;;;11.70;;
16832;SDS011;8533;48.426;10.868;2022-09-01T02:21:43;16.53;;;11.10;;
16832;SDS011;8533;48.426;10.868;2022-09-01T02:24:12;18.23;;;11.90;;
16832;SDS011;8533;48.426;10.868;2022-09-01T02:26:41;18.97;;;12.10;;
16832;SDS011;8533;48.426;10.868;2022-09-01T02:29:13;20.20;;;11.70;;
16832;SDS011;8533;48.426;10.868;2022-09-01T02:34:14;19.80;;;11.30;;
16832;SDS011;8533;48.426;10.868;2022-09-01T02:36:45;19.10;;;11.20;;
16832;SDS011;8533;48.426;10.868;2022-09-01T02:39:14;22.42;;;11.05;;
16832;SDS011;8533;48.426;10.868;2022-09-01T02:41:47;19.37;;;11.40;;
16832;SDS011;8533;48.426;10.868;2022-09-01T02:44:15;17.83;;;10.80;;
16832;SDS011;8533;48.426;10.868;2022-09-01T02:46:45;15.37;;;10.80;;
16832;SDS011;8533;48.426;10.868;2022-09-01T02:49:14;18.40;;;11.53;;
16832;SDS011;8533;48.426;10.868;2022-09-01T02:51:47;16.00;;;10.60;;
16832;SDS011;8533;48.426;10.868;2022-09-01T02:54:17;18.77;;;11.43;;
16832;SDS011;8533;48.426;10.868;2022-09-01T02:56:47;17.77;;;10.47;;
16832;SDS011;8533;48.426;10.868;2022-09-01T02:59:19;17.33;;;10.87;;
16832;SDS011;8533;48.426;10.868;2022-09-01T03:01:49;15.33;;;10.30;;
16832;SDS011;8533;48.426;10.868;2022-09-01T03:04:18;16.40;;;10.27;;
16832;SDS011;8533;48.426;10.868;2022-09-01T03:06:47;17.60;;;10.33;;
16832;SDS011;8533;48.426;10.868;2022-09-01T03:09:16;16.00;;;9.67;;
16832;SDS011;8533;48.426;10.868;2022-09-01T03:11:45;16.83;;;10.20;;
16832;SDS011;8533;48.426;10.868;2022-09-01T03:14:15;16.03;;;9.73;;
16832;SDS011;8533;48.426;10.868;2022-09-01T03:16:43;17.60;;;10.68;;
16832;SDS011;8533;48.426;10.868;2022-09-01T03:19:11;16.77;;;11.27;;
16832;SDS011;8533;48.426;10.868;2022-09-01T03:21:40;14.37;;;9.90;;
16832;SDS011;8533;48.426;10.868;2022-09-01T03:24:10;17.60;;;10.33;;
16832;SDS011;8533;48.426;10.868;2022-09-01T03:26:41;19.90;;;11.33;;
16832;SDS011;8533;48.426;10.868;2022-09-01T03:29:11;19.23;;;11.60;;
16832;SDS011;8533;48.426;10.868;2022-09-01T03:31:39;19.50;;;10.67;;
16832;SDS011;8533;48.426;10.868;2022-09-01T03:34:07;19.13;;;11.27;;
16832;SDS011;8533;48.426;10.868;2022-09-01T03:36:35;17.13;;;11.23;;
16832;SDS011;8533;48.426;10.868;2022-09-01T03:39:04;17.23;;;10.27;;
16832;SDS011;8533;48.426;10.868;2022-09-01T03:41:33;17.40;;;11.10;;
16832;SDS011;8533;48.426;10.868;2022-09-01T03:44:01;19.70;;;11.17;;
16832;SDS011;8533;48.426;10.868;2022-09-01T03:46:29;17.80;;;11.13;;
16832;SDS011;8533;48.426;10.868;2022-09-01T03:48:58;19.80;;;11.83;;
16832;SDS011;8533;48.426;10.868;2022-09-01T03:51:27;19.63;;;11.63;;
16832;SDS011;8533;48.426;10.868;2022-09-01T03:53:55;20.20;;;11.40;;
16832;SDS011;8533;48.426;10.868;2022-09-01T03:56:24;18.27;;;11.00;;
16832;SDS011;8533;48.426;10.868;2022-09-01T03:58:54;18.43;;;11.60;;
16832;SDS011;8533;48.426;10.868;2022-09-01T04:01:24;17.73;;;11.03;;
16832;SDS011;8533;48.426;10.868;2022-09-01T04:03:57;18.87;;;11.77;;
16832;SDS011;8533;48.426;10.868;2022-09-01T04:06:25;19.83;;;12.50;;
16832;SDS011;8533;48.426;10.868;2022-09-01T04:08:54;17.90;;;11.37;;
16832;SDS011;8533;48.426;10.868;2022-09-01T04:11:24;18.50;;;11.40;;
16832;SDS011;8533;48.426;10.868;2022-09-01T04:13:51;18.53;;;11.33;;
16832;SDS011;8533;48.426;10.868;2022-09-01T04:16:20;19.33;;;11.13;;
16832;SDS011;8533;48.426;10.868;2022-09-01T04:19:08;19.27;;;11.60;;
16832;SDS011;8533;48.426;10.868;2022-09-01T04:24:15;18.87;;;11.27;;
16832;SDS011;8533;48.426;10.868;2022-09-01T04:26:43;16.90;;;10.63;;
16832;SDS011;8533;48.426;10.868;2022-09-01T04:29:13;17.57;;;11.37;;
16832;SDS011;8533;48.426;10.868;2022-09-01T04:31:44;17.40;;;10.90;;
16832;SDS011;8533;48.426;10.868;2022-09-01T04:34:13;17.73;;;11.13;;
16832;SDS011;8533;48.426;10.868;2022-09-01T04:36:41;21.53;;;12.33;;
16832;SDS011;8533;48.426;10.868;2022-09-01T04:39:10;17.50;;;11.13;;
16832;SDS011;8533;48.426;10.868;2022-09-01T04:41:39;20.20;;;11.50;;
16832;SDS011;8533;48.426;10.868;2022-09-01T04:44:10;21.27;;;12.47;;
16832;SDS011;8533;48.426;10.868;2022-09-01T04:46:41;18.40;;;11.30;;
16832;SDS011;8533;48.426;10.868;2022-09-01T04:49:10;20.83;;;12.80;;
16832;SDS011;8533;48.426;10.868;2022-09-01T04:51:41;20.03;;;11.87;;
16832;SDS011;8533;48.426;10.868;2022-09-01T04:54:11;21.60;;;12.40;;
16832;SDS011;8533;48.426;10.868;2022-09-01T04:56:41;20.03;;;11.97;;
16832;SDS011;8533;48.426;10.868;2022-09-01T04:59:11;22.23;;;12.80;;
16832;SDS011;8533;48.426;10.868;2022-09-01T05:01:40;20.13;;;12.27;;
16832;SDS011;8533;48.426;10.868;2022-09-01T05:04:17;21.33;;;12.50;;
16832;SDS011;8533;48.426;10.868;2022-09-01T05:09:16;20.90;;;12.17;;
16832;SDS011;8533;48.426;10.868;2022-09-01T05:11:44;19.93;;;12.37;;
16832;SDS011;8533;48.426;10.868;2022-09-01T05:14:13;21.83;;;12.27;;
16832;SDS011;8533;48.426;10.868;2022-09-01T05:16:42;20.03;;;11.40;;
16832;SDS011;8533;48.426;10.868;2022-09-01T05:19:10;21.70;;;12.67;;
16832;SDS011;8533;48.426;10.868;2022-09-01T05:21:42;17.90;;;10.90;;
16832;SDS011;8533;48.426;10.868;2022-09-01T05:24:13;22.55;;;13.45;;
16832;SDS011;8533;48.426;10.868;2022-09-01T05:26:42;19.43;;;12.27;;
16832;SDS011;8533;48.426;10.868;2022-09-01T05:29:12;19.73;;;12.33;;
16832;SDS011;8533;48.426;10.868;2022-09-01T05:31:43;23.40;;;11.97;;
16832;SDS011;8533;48.426;10.868;2022-09-01T05:34:12;19.40;;;12.13;;
16832;SDS011;8533;48.426;10.868;2022-09-01T05:36:43;18.63;;;10.87;;
16832;SDS011;8533;48.426;10.868;2022-09-01T05:39:13;18.93;;;11.87;;
16832;SDS011;8533;48.426;10.868;2022-09-01T05:41:41;21.10;;;12.23;;
16832;SDS011;8533;48.426;10.868;2022-09-01T05:44:10;20.00;;;11.90;;
16832;SDS011;8533;48.426;10.868;2022-09-01T05:46:38;17.93;;;11.30;;
16832;SDS011;8533;48.426;10.868;2022-09-01T05:49:07;23.50;;;12.33;;
16832;SDS011;8533;48.426;10.868;2022-09-01T05:51:41;20.90;;;11.53;;
16832;SDS011;8533;48.426;10.868;2022-09-01T05:54:12;19.87;;;12.07;;
16832;SDS011;8533;48.426;10.868;2022-09-01T05:56:40;21.27;;;12.25;;
16832;SDS011;8533;48.426;10.868;2022-09-01T05:59:08;20.50;;;11.10;;
16832;SDS011;8533;48.426;10.868;2022-09-01T06:01:36;18.47;;;11.23;;
16832;SDS011;8533;48.426;10.868;2022-09-01T06:04:06;20.00;;;10.93;;
16832;SDS011;8533;48.426;10.868;2022-09-01T06:06:43;17.40;;;10.90;;
16832;SDS011;8533;48.426;10.868;2022-09-01T06:11:39;17.60;;;10.00;;
16832;SDS011;8533;48.426;10.868;2022-09-01T06:14:06;16.55;;;11.18;;
16832;SDS011;8533;48.426;10.868;2022-09-01T06:16:36;16.23;;;9.67;;
16832;SDS011;8533;48.426;10.868;2022-09-01T06:19:03;13.03;;;8.57;;
16832;SDS011;8533;48.426;10.868;2022-09-01T06:21:31;18.25;;;10.40;;
16832;SDS011;8533;48.426;10.868;2022-09-01T06:23:58;14.70;;;9.63;;
16832;SDS011;8533;48.426;10.868;2022-09-01T06:26:32;12.80;;;7.97;;
16832;SDS011;8533;48.426;10.868;2022-09-01T06:28:58;13.20;;;8.73;;
16832;SDS011;8533;48.426;10.868;2022-09-01T06:31:35;15.93;;;10.33;;
16832;SDS011;8533;48.426;10.868;2022-09-01T06:34:04;12.57;;;8.50;;
16832;SDS011;8533;48.426;10.868;2022-09-01T06:36:36;13.80;;;9.13;;
16832;SDS011;8533;48.426;10.868;2022-09-01T06:39:06;15.37;;;9.30;;
16832;SDS011;8533;48.426;10.868;2022-09-01T06:41:36;15.07;;;9.43;;
16832;SDS011;8533;48.426;10.868;2022-09-01T06:44:04;12.23;;;8.57;;
16832;SDS011;8533;48.426;10.868;2022-09-01T06:46:31;14.43;;;9.27;;
16832;SDS011;8533;48.426;10.868;2022-09-01T06:48:59;15.20;;;8.67;;
16832;SDS011;8533;48.426;10.868;2022-09-01T06:51:28;12.20;;;8.33;;
16832;SDS011;8533;48.426;10.868;2022-09-01T06:53:56;11.20;;;8.20;;
16832;SDS011;8533;48.426;10.868;2022-09-01T06:56:25;13.97;;;8.30;;
16832;SDS011;8533;48.426;10.868;2022-09-01T06:58:54;13.23;;;8.67;;
16832;SDS011;8533;48.426;10.868;2022-09-01T07:01:23;15.23;;;8.80;;
16832;SDS011;8533;48.426;10.868;2022-09-01T07:03:52;11.53;;;7.77;;
16832;SDS011;8533;48.426;10.868;2022-09-01T07:06:24;9.93;;;7.43;;
16832;SDS011;8533;48.426;10.868;2022-09-01T07:11:25;10.80;;;7.57;;
16832;SDS011;8533;48.426;10.868;2022-09-01T07:14:00;11.57;;;8.00;;
16832;SDS011;8533;48.426;10.868;2022-09-01T07:16:28;11.00;;;7.00;;
16832;SDS011;8533;48.426;10.868;2022-09-01T07:19:00;10.13;;;6.87;;
16832;SDS011;8533;48.426;10.868;2022-09-01T07:21:29;11.00;;;7.13;;
16832;SDS011;8533;48.426;10.868;2022-09-01T07:23:59;10.20;;;7.40;;
16832;SDS011;8533;48.426;10.868;2022-09-01T07:26:28;12.80;;;7.27;;
16832;SDS011;8533;48.426;10.868;2022-09-01T07:28:58;12.40;;;7.37;;
16832;SDS011;8533;48.426;10.868;2022-09-01T07:31:28;10.10;;;7.13;;
16832;SDS011;8533;48.426;10.868;2022-09-01T07:34:00;10.37;;;7.20;;
16832;SDS011;8533;48.426;10.868;2022-09-01T07:36:30;11.47;;;7.20;;
16832;SDS011;8533;48.426;10.868;2022-09-01T07:38:58;11.07;;;7.63;;
16832;SDS011;8533;48.426;10.868;2022-09-01T07:41:26;11.43;;;7.00;;
16832;SDS011;8533;48.426;10.868;2022-09-01T07:43:54;12.10;;;8.53;;
16832;SDS011;8533;48.426;10.868;2022-09-01T07:46:22;12.20;;;8.50;;
16832;SDS011;8533;48.426;10.868;2022-09-01T07:48:53;11.33;;;8.17;;
16832;SDS011;8533;48.426;10.868;2022-09-01T07:51:22;12.50;;;7.80;;
16832;SDS011;8533;48.426;10.868;2022-09-01T07:53:51;10.43;;;7.50;;
16832;SDS011;8533;48.426;10.868;2022-09-01T07:56:19;12.00;;;8.00;;
16832;SDS011;8533;48.426;10.868;2022-09-01T07:58:49;9.37;;;6.70;;
16832;SDS011;8533;48.426;10.868;2022-09-01T08:01:19;10.57;;;6.53;;
16832;SDS011;8533;48.426;10.868;2022-09-01T08:03:49;7.97;;;5.80;;
16832;SDS011;8533;48.426;10.868;2022-09-01T08:06:20;10.00;;;6.83;;
16832;SDS011;8533;48.426;10.868;2022-09-01T08:08:51;11.73;;;8.13;;
16832;SDS011;8533;48.426;10.868;2022-09-01T08:11:22;12.93;;;8.57;;
16832;SDS011;8533;48.426;10.868;2022-09-01T08:13:51;11.60;;;7.70;;
16832;SDS011;8533;48.426;10.868;2022-09-01T08:16:22;11.03;;;7.73;;
16832;SDS011;8533;48.426;10.868;2022-09-01T08:18:50;13.07;;;7.77;;
16832;SDS011;8533;48.426;10.868;2022-09-01T08:21:18;11.03;;;7.73;;
16832;SDS011;8533;48.426;10.868;2022-09-01T08:23:49;11.53;;;7.80;;
16832;SDS011;8533;48.426;10.868;2022-09-01T08:26:19;10.20;;;7.47;;
16832;SDS011;8533;48.426;10.868;2022-09-01T08:28:48;10.40;;;7.40;;
16832;SDS011;8533;48.426;10.868;2022-09-01T08:31:16;10.97;;;7.30;;
16832;SDS011;8533;48.426;10.868;2022-09-01T08:33:46;10.30;;;6.87;;
16832;SDS011;8533;48.426;10.868;2022-09-01T08:36:14;9.43;;;6.80;;
16832;SDS011;8533;48.426;10.868;2022-09-01T08:38:43;8.20;;;5.43;;
16832;SDS011;8533;48.426;10.868;2022-09-01T08:41:15;9.80;;;6.10;;
16832;SDS011;8533;48.426;10.868;2022-09-01T08:46:41;6.70;;;5.20;;
16832;SDS011;8533;48.426;10.868;2022-09-01T08:49:15;7.50;;;5.60;;
16832;SDS011;8533;48.426;10.868;2022-09-01T08:51:48;7.80;;;5.30;;
16832;SDS011;8533;48.426;10.868;2022-09-01T08:54:43;8.13;;;5.50;;
16832;SDS011;8533;48.426;10.868;2022-09-01T08:59:46;6.47;;;5.47;;
16832;SDS011;8533;48.426;10.868;2022-09-01T09:10:14;5.47;;;4.77;;
16832;SDS011;8533;48.426;10.868;2022-09-01T09:15:43;5.70;;;4.70;;
16832;SDS011;8533;48.426;10.868;2022-09-01T09:18:26;4.90;;;4.20;;
16832;SDS011;8533;48.426;10.868;2022-09-01T09:23:26;4.80;;;4.33;;
16832;SDS011;8533;48.426;10.868;2022-09-01T09:25:54;6.80;;;5.10;;
16832;SDS011;8533;48.426;10.868;2022-09-01T09:28:22;6.53;;;5.17;;
16832;SDS011;8533;48.426;10.868;2022-09-01T09:30:49;6.33;;;4.73;;
16832;SDS011;8533;48.426;10.868;2022-09-01T09:33:34;7.35;;;5.70;;
16832;SDS011;8533;48.426;10.868;2022-09-01T09:36:18;5.10;;;4.30;;
16832;SDS011;8533;48.426;10.868;2022-09-01T09:39:05;6.40;;;4.85;;
16832;SDS011;8533;48.426;10.868;2022-09-01T09:41:33;5.85;;;4.85;;
16832;SDS011;8533;48.426;10.868;2022-09-01T09:46:54;8.57;;;5.03;;
16832;SDS011;8533;48.426;10.868;2022-09-01T09:49:26;8.37;;;5.07;;
16832;SDS011;8533;48.426;10.868;2022-09-01T09:57:11;5.70;;;4.70;;
16832;SDS011;8533;48.426;10.868;2022-09-01T10:02:26;5.87;;;4.90;;
16832;SDS011;8533;48.426;10.868;2022-09-01T10:04:56;6.80;;;5.50;;
16832;SDS011;8533;48.426;10.868;2022-09-01T10:07:29;7.33;;;5.25;;
16832;SDS011;8533;48.426;10.868;2022-09-01T10:10:07;6.60;;;4.87;;
16832;SDS011;8533;48.426;10.868;2022-09-01T10:12:32;6.83;;;5.17;;
16832;SDS011;8533;48.426;10.868;2022-09-01T10:15:07;6.40;;;4.37;;
16832;SDS011;8533;48.426;10.868;2022-09-01T10:20:08;5.87;;;4.70;;
16832;SDS011;8533;48.426;10.868;2022-09-01T10:25:13;7.80;;;5.30;;
16832;SDS011;8533;48.426;10.868;2022-09-01T10:27:41;7.17;;;5.33;;
16832;SDS011;8533;48.426;10.868;2022-09-01T10:30:15;6.03;;;5.00;;
16832;SDS011;8533;48.426;10.868;2022-09-01T10:33:05;5.77;;;4.73;;
16832;SDS011;8533;48.426;10.868;2022-09-01T10:37:49;5.50;;;4.90;;
16832;SDS011;8533;48.426;10.868;2022-09-01T10:45:32;6.10;;;5.03;;
16832;SDS011;8533;48.426;10.868;2022-09-01T10:50:52;8.10;;;5.10;;
16832;SDS011;8533;48.426;10.868;2022-09-01T10:56:06;7.60;;;6.00;;
16832;SDS011;8533;48.426;10.868;2022-09-01T11:01:06;7.17;;;5.63;;
16832;SDS011;8533;48.426;10.868;2022-09-01T11:03:53;5.13;;;4.50;;
16832;SDS011;8533;48.426;10.868;2022-09-01T11:17:31;6.67;;;5.43;;
16832;SDS011;8533;48.426;10.868;2022-09-01T11:25:33;8.60;;;5.10;;
16832;SDS011;8533;48.426;10.868;2022-09-01T11:28:05;5.23;;;4.50;;
16832;SDS011;8533;48.426;10.868;2022-09-01T11:36:15;5.87;;;4.90;;
16832;SDS011;8533;48.426;10.868;2022-09-01T11:41:25;5.03;;;4.33;;
16832;SDS011;8533;48.426;10.868;2022-09-01T11:46:30;5.13;;;4.50;;
16832;SDS011;8533;48.426;10.868;2022-09-01T11:48:57;3.70;;;3.40;;
16832;SDS011;8533;48.426;10.868;2022-09-01T11:51:28;4.17;;;3.77;;
16832;SDS011;8533;48.426;10.868;2022-09-01T11:53:58;4.40;;;3.43;;
16832;SDS011;8533;48.426;10.868;2022-09-01T11:56:26;4.17;;;3.50;;
16832;SDS011;8533;48.426;10.868;2022-09-01T11:58:54;4.20;;;3.80;;
16832;SDS011;8533;48.426;10.868;2022-09-01T12:01:36;3.60;;;3.30;;
16832;SDS011;8533;48.426;10.868;2022-09-01T12:06:33;3.87;;;3.10;;
16832;SDS011;8533;48.426;10.868;2022-09-01T12:09:05;4.80;;;3.23;;
16832;SDS011;8533;48.426;10.868;2022-09-01T12:11:31;3.33;;;3.03;;
16832;SDS011;8533;48.426;10.868;2022-09-01T12:14:07;4.50;;;3.10;;
16832;SDS011;8533;48.426;10.868;2022-09-01T12:19:06;5.37;;;3.17;;
16832;SDS011;8533;48.426;10.868;2022-09-01T12:21:40;2.90;;;2.70;;
16832;SDS011;8533;48.426;10.868;2022-09-01T12:24:12;3.30;;;3.00;;
16832;SDS011;8533;48.426;10.868;2022-09-01T12:29:13;3.70;;;3.30;;
16832;SDS011;8533;48.426;10.868;2022-09-01T12:31:42;3.83;;;3.20;;
16832;SDS011;8533;48.426;10.868;2022-09-01T12:37:09;3.43;;;3.13;;
16832;SDS011;8533;48.426;10.868;2022-09-01T12:42:09;3.60;;;3.20;;
16832;SDS011;8533;48.426;10.868;2022-09-01T12:47:13;5.50;;;3.00;;
16832;SDS011;8533;48.426;10.868;2022-09-01T12:49:43;6.13;;;3.10;;
16832;SDS011;8533;48.426;10.868;2022-09-01T12:52:16;3.80;;;3.50;;
16832;SDS011;8533;48.426;10.868;2022-09-01T12:57:32;3.53;;;3.20;;
16832;SDS011;8533;48.426;10.868;2022-09-01T13:02:36;4.00;;;3.43;;
16832;SDS011;8533;48.426;10.868;2022-09-01T13:07:55;3.77;;;3.40;;
16832;SDS011;8533;48.426;10.868;2022-09-01T13:10:26;4.00;;;3.20;;
16832;SDS011;8533;48.426;10.868;2022-09-01T13:12:56;4.03;;;2.90;;
16832;SDS011;8533;48.426;10.868;2022-09-01T13:15:24;4.00;;;2.80;;
16832;SDS011;8533;48.426;10.868;2022-09-01T13:17:52;3.25;;;2.80;;
16832;SDS011;8533;48.426;10.868;2022-09-01T13:20:19;2.97;;;2.73;;
16832;SDS011;8533;48.426;10.868;2022-09-01T13:22:47;3.10;;;2.80;;
16832;SDS011;8533;48.426;10.868;2022-09-01T13:25:15;2.87;;;2.60;;
16832;SDS011;8533;48.426;10.868;2022-09-01T13:27:45;2.70;;;2.50;;
16832;SDS011;8533;48.426;10.868;2022-09-01T13:30:13;2.60;;;2.40;;
16832;SDS011;8533;48.426;10.868;2022-09-01T13:32:42;4.03;;;2.87;;
16832;SDS011;8533;48.426;10.868;2022-09-01T13:35:11;3.10;;;2.80;;
16832;SDS011;8533;48.426;10.868;2022-09-01T13:37:41;2.83;;;2.63;;
16832;SDS011;8533;48.426;10.868;2022-09-01T13:40:09;3.20;;;2.90;;
16832;SDS011;8533;48.426;10.868;2022-09-01T13:42:39;2.87;;;2.60;;
16832;SDS011;8533;48.426;10.868;2022-09-01T13:47:43;2.50;;;2.30;;
16832;SDS011;8533;48.426;10.868;2022-09-01T13:50:13;4.33;;;2.37;;
16832;SDS011;8533;48.426;10.868;2022-09-01T13:52:45;3.50;;;2.60;;
16832;SDS011;8533;48.426;10.868;2022-09-01T13:55:15;2.93;;;2.40;;
16832;SDS011;8533;48.426;10.868;2022-09-01T13:57:44;2.60;;;2.40;;
16832;SDS011;8533;48.426;10.868;2022-09-01T14:00:18;2.77;;;2.40;;
16832;SDS011;8533;48.426;10.868;2022-09-01T14:02:44;2.33;;;2.13;;
16832;SDS011;8533;48.426;10.868;2022-09-01T14:05:16;2.65;;;2.45;;
16832;SDS011;8533;48.426;10.868;2022-09-01T14:07:45;2.90;;;2.47;;
16832;SDS011;8533;48.426;10.868;2022-09-01T14:10:13;2.97;;;2.10;;
16832;SDS011;8533;48.426;10.868;2022-09-01T14:12:41;2.40;;;2.20;;
16832;SDS011;8533;48.426;10.868;2022-09-01T14:15:10;2.70;;;2.50;;
16832;SDS011;8533;48.426;10.868;2022-09-01T14:17:39;4.60;;;2.60;;
16832;SDS011;8533;48.426;10.868;2022-09-01T14:20:08;3.00;;;2.40;;
16832;SDS011;8533;48.426;10.868;2022-09-01T14:22:39;2.60;;;2.40;;
16832;SDS011;8533;48.426;10.868;2022-09-01T14:25:07;6.30;;;2.43;;
16832;SDS011;8533;48.426;10.868;2022-09-01T14:27:35;2.80;;;2.57;;
16832;SDS011;8533;48.426;10.868;2022-09-01T14:30:15;2.60;;;2.40;;
16832;SDS011;8533;48.426;10.868;2022-09-01T14:32:34;3.93;;;2.40;;
16832;SDS011;8533;48.426;10.868;2022-09-01T14:35:01;2.83;;;2.52;;
16832;SDS011;8533;48.426;10.868;2022-09-01T14:37:31;2.23;;;2.03;;
16832;SDS011;8533;48.426;10.868;2022-09-01T14:39:58;2.70;;;2.50;;
16832;SDS011;8533;48.426;10.868;2022-09-01T14:42:26;2.60;;;2.40;;
16832;SDS011;8533;48.426;10.868;2022-09-01T14:44:53;3.43;;;2.07;;
16832;SDS011;8533;48.426;10.868;2022-09-01T14:47:21;3.83;;;2.40;;
16832;SDS011;8533;48.426;10.868;2022-09-01T14:49:50;2.70;;;2.50;;
16832;SDS011;8533;48.426;10.868;2022-09-01T14:52:18;2.73;;;2.43;;
16832;SDS011;8533;48.426;10.868;2022-09-01T14:54:46;4.10;;;2.80;;
16832;SDS011;8533;48.426;10.868;2022-09-01T14:57:14;2.70;;;2.50;;
16832;SDS011;8533;48.426;10.868;2022-09-01T14:59:42;2.40;;;2.17;;
16832;SDS011;8533;48.426;10.868;2022-09-01T15:02:09;3.70;;;2.50;;
16832;SDS011;8533;48.426;10.868;2022-09-01T15:04:37;2.43;;;2.23;;
16832;SDS011;8533;48.426;10.868;2022-09-01T15:07:04;2.65;;;2.45;;
16832;SDS011;8533;48.426;10.868;2022-09-01T15:09:31;2.90;;;2.53;;
16832;SDS011;8533;48.426;10.868;2022-09-01T15:12:00;2.70;;;2.40;;
16832;SDS011;8533;48.426;10.868;2022-09-01T15:14:27;1.90;;;1.80;;
16832;SDS011;8533;48.426;10.868;2022-09-01T15:16:55;2.30;;;2.10;;
16832;SDS011;8533;48.426;10.868;2022-09-01T15:19:22;2.10;;;2.00;;
16832;SDS011;8533;48.426;10.868;2022-09-01T15:21:50;2.40;;;2.20;;
16832;SDS011;8533;48.426;10.868;2022-09-01T15:24:17;3.03;;;2.50;;
16832;SDS011;8533;48.426;10.868;2022-09-01T15:26:45;2.10;;;2.00;;
16832;SDS011;8533;48.426;10.868;2022-09-01T15:29:13;2.47;;;2.07;;
16832;SDS011;8533;48.426;10.868;2022-09-01T15:31:41;2.63;;;2.20;;
16832;SDS011;8533;48.426;10.868;2022-09-01T15:34:10;2.27;;;2.07;;
16832;SDS011;8533;48.426;10.868;2022-09-01T15:36:38;2.43;;;2.00;;
16832;SDS011;8533;48.426;10.868;2022-09-01T15:39:07;2.30;;;2.10;;
16832;SDS011;8533;48.426;10.868;2022-09-01T15:41:35;3.07;;;2.17;;
16832;SDS011;8533;48.426;10.868;2022-09-01T15:44:04;4.43;;;2.33;;
16832;SDS011;8533;48.426;10.868;2022-09-01T15:46:33;2.30;;;2.10;;
16832;SDS011;8533;48.426;10.868;2022-09-01T15:49:04;2.67;;;2.30;;
16832;SDS011;8533;48.426;10.868;2022-09-01T15:51:34;3.83;;;1.90;;
16832;SDS011;8533;48.426;10.868;2022-09-01T15:54:05;2.30;;;2.10;;
16832;SDS011;8533;48.426;10.868;2022-09-01T15:56:36;2.10;;;1.90;;
16832;SDS011;8533;48.426;10.868;2022-09-01T15:59:04;2.17;;;2.00;;
16832;SDS011;8533;48.426;10.868;2022-09-01T16:01:34;2.05;;;1.92;;
16832;SDS011;8533;48.426;10.868;2022-09-01T16:04:04;2.97;;;2.70;;
16832;SDS011;8533;48.426;10.868;2022-09-01T16:06:33;2.40;;;2.20;;
16832;SDS011;8533;48.426;10.868;2022-09-01T16:09:01;3.00;;;2.30;;
16832;SDS011;8533;48.426;10.868;2022-09-01T16:11:29;2.93;;;2.33;;
16832;SDS011;8533;48.426;10.868;2022-09-01T16:13:56;2.43;;;2.23;;
16832;SDS011;8533;48.426;10.868;2022-09-01T16:16:28;2.33;;;2.00;;
16832;SDS011;8533;48.426;10.868;2022-09-01T16:19:17;2.03;;;1.93;;
16832;SDS011;8533;48.426;10.868;2022-09-01T16:27:01;2.37;;;2.17;;
16832;SDS011;8533;48.426;10.868;2022-09-01T16:29:48;2.30;;;2.10;;
16832;SDS011;8533;48.426;10.868;2022-09-01T16:32:17;2.10;;;2.00;;
16832;SDS011;8533;48.426;10.868;2022-09-01T16:34:47;2.10;;;1.90;;
16832;SDS011;8533;48.426;10.868;2022-09-01T16:37:19;2.33;;;1.90;;
16832;SDS011;8533;48.426;10.868;2022-09-01T16:39:56;2.17;;;2.03;;
16832;SDS011;8533;48.426;10.868;2022-09-01T16:45:00;3.07;;;1.73;;
16832;SDS011;8533;48.426;10.868;2022-09-01T16:50:03;3.13;;;2.23;;
16832;SDS011;8533;48.426;10.868;2022-09-01T16:52:37;4.13;;;2.93;;
16832;SDS011;8533;48.426;10.868;2022-09-01T17:05:40;2.53;;;2.33;;
16832;SDS011;8533;48.426;10.868;2022-09-01T17:13:40;1.80;;;1.70;;
16832;SDS011;8533;48.426;10.868;2022-09-01T17:16:17;1.97;;;1.83;;
16832;SDS011;8533;48.426;10.868;2022-09-01T17:21:31;3.43;;;2.20;;
16832;SDS011;8533;48.426;10.868;2022-09-01T17:23:56;3.13;;;1.93;;
16832;SDS011;8533;48.426;10.868;2022-09-01T17:26:26;2.20;;;2.00;;